createdAt,value
2016-07-08T00:00:05.034Z,0
2016-07-08T00:01:04.924Z,0
2016-07-08T00:02:04.946Z,0
2016-07-08T00:03:04.937Z,0
2016-07-08T00:04:04.898Z,0
2016-07-08T00:05:04.933Z,0
2016-07-08T00:06:04.924Z,0
2016-07-08T00:07:04.922Z,0
2016-07-08T00:08:04.921Z,0
2016-07-08T00:09:04.974Z,0
2016-07-08T00:10:04.955Z,0
2016-07-08T00:11:04.956Z,0
2016-07-08T00:12:04.933Z,0
2016-07-08T00:13:04.931Z,0
2016-07-08T00:14:04.901Z,0
2016-07-08T00:15:04.965Z,0
2016-07-08T00:16:04.931Z,0
2016-07-08T00:17:04.981Z,0
2016-07-08T00:18:04.913Z,0
2016-07-08T00:19:04.859Z,0
2016-07-08T00:20:04.957Z,0
2016-07-08T00:21:04.936Z,0
2016-07-08T00:22:04.910Z,0
2016-07-08T00:23:04.936Z,0
2016-07-08T00:24:04.939Z,0
2016-07-08T00:25:04.944Z,0
2016-07-08T00:26:04.954Z,0
2016-07-08T00:27:04.917Z,0
2016-07-08T00:28:04.905Z,0
2016-07-08T00:29:05.016Z,0
2016-07-08T00:30:04.980Z,0
2016-07-08T00:31:04.946Z,0
2016-07-08T00:32:04.924Z,0
2016-07-08T00:33:04.923Z,0
2016-07-08T00:34:04.991Z,0
2016-07-08T00:35:04.937Z,0
2016-07-08T00:36:04.913Z,0
2016-07-08T00:37:04.950Z,0
2016-07-08T00:38:04.983Z,0
2016-07-08T00:39:04.940Z,0
2016-07-08T00:40:04.990Z,0
2016-07-08T00:41:04.944Z,0
2016-07-08T00:42:04.945Z,0
2016-07-08T00:43:04.947Z,0
2016-07-08T00:44:04.943Z,0
2016-07-08T00:45:04.947Z,0
2016-07-08T00:46:04.963Z,0
2016-07-08T00:47:04.911Z,0
2016-07-08T00:48:04.981Z,0
2016-07-08T00:49:04.979Z,0
2016-07-08T00:50:04.909Z,0
2016-07-08T00:51:04.967Z,0
2016-07-08T00:52:04.952Z,0
2016-07-08T00:53:04.919Z,0
2016-07-08T00:54:04.946Z,0
2016-07-08T00:55:05.328Z,0
2016-07-08T00:56:04.965Z,0
2016-07-08T00:57:05.003Z,0
2016-07-08T00:58:04.924Z,0
2016-07-08T00:59:09.038Z,0
2016-07-08T01:00:04.979Z,0
2016-07-08T01:01:04.967Z,0
2016-07-08T01:02:04.911Z,0
2016-07-08T01:03:04.930Z,0
2016-07-08T01:04:04.958Z,0
2016-07-08T01:05:04.986Z,0
2016-07-08T01:06:04.960Z,0
2016-07-08T01:07:05.014Z,0
2016-07-08T01:08:05.240Z,0
2016-07-08T01:09:05.579Z,0
2016-07-08T01:10:05.044Z,0
2016-07-08T01:11:04.983Z,0
2016-07-08T01:12:04.916Z,0
2016-07-08T01:13:04.901Z,0
2016-07-08T01:14:04.907Z,0
2016-07-08T01:15:04.977Z,0
2016-07-08T01:16:05.010Z,0
2016-07-08T01:17:04.972Z,0
2016-07-08T01:18:04.960Z,0
2016-07-08T01:19:04.969Z,0
2016-07-08T01:20:04.977Z,0
2016-07-08T01:21:04.977Z,0
2016-07-08T01:22:04.976Z,0
2016-07-08T01:23:04.976Z,0
2016-07-08T01:24:04.960Z,0
2016-07-08T01:25:04.951Z,0
2016-07-08T01:26:04.918Z,0
2016-07-08T01:27:04.967Z,0
2016-07-08T01:28:04.956Z,0
2016-07-08T01:29:04.937Z,0
2016-07-08T01:30:04.956Z,0
2016-07-08T01:31:05.000Z,0
2016-07-08T01:32:04.967Z,0
2016-07-08T01:33:04.960Z,0
2016-07-08T01:34:04.979Z,0
2016-07-08T01:35:05.001Z,0
2016-07-08T01:36:04.997Z,0
2016-07-08T01:37:04.985Z,0
2016-07-08T01:38:05.001Z,0
2016-07-08T01:39:04.973Z,0
2016-07-08T01:40:04.979Z,0
2016-07-08T01:41:04.934Z,0
2016-07-08T01:42:04.936Z,0
2016-07-08T01:43:04.986Z,0
2016-07-08T01:44:04.963Z,0
2016-07-08T01:45:04.992Z,0
2016-07-08T01:46:04.971Z,0
2016-07-08T01:47:04.989Z,0
2016-07-08T01:48:04.927Z,0
2016-07-08T01:49:05.011Z,0
2016-07-08T01:50:04.975Z,0
2016-07-08T01:51:04.966Z,0
2016-07-08T01:52:04.952Z,0
2016-07-08T01:53:04.940Z,0
2016-07-08T01:54:05.021Z,0
2016-07-08T01:55:04.974Z,0
2016-07-08T01:56:04.960Z,0
2016-07-08T01:57:05.004Z,0
2016-07-08T01:58:05.021Z,0
2016-07-08T01:59:04.982Z,0
2016-07-08T02:00:04.991Z,0
2016-07-08T02:01:05.025Z,0
2016-07-08T02:02:04.970Z,0
2016-07-08T02:03:04.966Z,0
2016-07-08T02:04:04.979Z,0
2016-07-08T02:05:05.015Z,0
2016-07-08T02:06:05.043Z,0
2016-07-08T02:07:04.981Z,0
2016-07-08T02:08:04.985Z,0
2016-07-08T02:09:04.976Z,0
2016-07-08T02:10:05.005Z,0
2016-07-08T02:11:05.008Z,0
2016-07-08T02:12:04.988Z,0
2016-07-08T02:13:04.988Z,0
2016-07-08T02:14:04.995Z,0
2016-07-08T02:15:04.959Z,0
2016-07-08T02:16:05.013Z,0
2016-07-08T02:17:05.008Z,0
2016-07-08T02:18:05.011Z,0
2016-07-08T02:19:04.961Z,0
2016-07-08T02:20:04.984Z,0
2016-07-08T02:21:04.982Z,0
2016-07-08T02:22:04.960Z,0
2016-07-08T02:23:04.992Z,0
2016-07-08T02:24:05.015Z,0
2016-07-08T02:25:04.924Z,0
2016-07-08T02:26:04.979Z,0
2016-07-08T02:27:05.021Z,0
2016-07-08T02:28:05.003Z,0
2016-07-08T02:29:05.007Z,0
2016-07-08T02:30:05.112Z,0
2016-07-08T02:31:05.034Z,0
2016-07-08T02:32:04.984Z,0
2016-07-08T02:33:04.988Z,0
2016-07-08T02:34:05.032Z,0
2016-07-08T02:35:05.020Z,0
2016-07-08T02:36:04.990Z,0
2016-07-08T02:37:04.964Z,0
2016-07-08T02:38:05.004Z,0
2016-07-08T02:39:04.987Z,0
2016-07-08T02:40:04.992Z,0
2016-07-08T02:41:04.991Z,0
2016-07-08T02:42:04.976Z,0
2016-07-08T02:43:05.017Z,0
2016-07-08T02:44:05.047Z,0
2016-07-08T02:45:04.984Z,0
2016-07-08T02:46:05.038Z,0
2016-07-08T02:47:04.987Z,0
2016-07-08T02:48:05.023Z,0
2016-07-08T02:49:05.031Z,0
2016-07-08T02:50:05.092Z,0
2016-07-08T02:51:04.967Z,0
2016-07-08T02:52:05.032Z,0
2016-07-08T02:53:05.009Z,0
2016-07-08T02:54:05.070Z,0
2016-07-08T02:55:04.994Z,0
2016-07-08T02:56:04.993Z,0
2016-07-08T02:57:04.967Z,0
2016-07-08T02:58:05.030Z,0
2016-07-08T02:59:05.083Z,0
2016-07-08T03:00:05.061Z,0
2016-07-08T03:01:04.994Z,0
2016-07-08T03:02:04.991Z,0
2016-07-08T03:03:04.964Z,0
2016-07-08T03:04:04.999Z,0
2016-07-08T03:05:05.030Z,0
2016-07-08T03:06:04.959Z,0
2016-07-08T03:07:05.017Z,0
2016-07-08T03:08:05.006Z,0
2016-07-08T03:09:05.033Z,0
2016-07-08T03:10:05.029Z,0
2016-07-08T03:11:04.991Z,0
2016-07-08T03:12:05.011Z,0
2016-07-08T03:13:05.015Z,0
2016-07-08T03:14:05.042Z,0
2016-07-08T03:15:05.048Z,0
2016-07-08T03:16:05.007Z,0
2016-07-08T03:17:05.029Z,0
2016-07-08T03:18:05.024Z,0
2016-07-08T03:19:05.058Z,0
2016-07-08T03:20:05.064Z,0
2016-07-08T03:21:05.020Z,0
2016-07-08T03:22:05.028Z,0
2016-07-08T03:23:05.023Z,0
2016-07-08T03:24:05.031Z,0
2016-07-08T03:25:05.053Z,0
2016-07-08T03:26:05.014Z,0
2016-07-08T03:27:04.960Z,0
2016-07-08T03:28:05.009Z,0
2016-07-08T03:29:05.054Z,0
2016-07-08T03:30:05.085Z,0
2016-07-08T03:31:05.003Z,5
2016-07-08T03:32:05.023Z,5
2016-07-08T03:33:05.045Z,5
2016-07-08T03:34:05.086Z,5
2016-07-08T03:35:04.992Z,5
2016-07-08T03:36:05.024Z,5
2016-07-08T03:37:05.017Z,5
2016-07-08T03:38:05.006Z,5
2016-07-08T03:39:05.044Z,5
2016-07-08T03:40:05.057Z,10
2016-07-08T03:41:05.000Z,10
2016-07-08T03:42:05.049Z,10
2016-07-08T03:43:05.057Z,10
2016-07-08T03:44:05.037Z,10
2016-07-08T03:45:05.075Z,10
2016-07-08T03:46:05.038Z,10
2016-07-08T03:47:05.051Z,10
2016-07-08T03:48:05.064Z,10
2016-07-08T03:49:05.037Z,10
2016-07-08T03:50:05.080Z,10
2016-07-08T03:51:05.094Z,10
2016-07-08T03:52:05.032Z,10
2016-07-08T03:53:05.076Z,10
2016-07-08T03:54:05.076Z,15
2016-07-08T03:55:05.051Z,15
2016-07-08T03:56:05.011Z,15
2016-07-08T03:57:05.040Z,15
2016-07-08T03:58:05.043Z,15
2016-07-08T03:59:05.048Z,15
2016-07-08T04:00:05.061Z,15
2016-07-08T04:01:05.004Z,15
2016-07-08T04:02:05.066Z,20
2016-07-08T04:03:05.007Z,20
2016-07-08T04:04:05.032Z,20
2016-07-08T04:05:05.064Z,25
2016-07-08T04:06:05.067Z,25
2016-07-08T04:07:04.999Z,30
2016-07-08T04:08:05.051Z,30
2016-07-08T04:09:05.025Z,35
2016-07-08T04:10:05.018Z,40
2016-07-08T04:11:05.058Z,45
2016-07-08T04:12:05.034Z,50
2016-07-08T04:13:05.059Z,50
2016-07-08T04:14:05.017Z,50
2016-07-08T04:15:05.035Z,55
2016-07-08T04:16:05.027Z,50
2016-07-08T04:17:05.066Z,50
2016-07-08T04:18:05.088Z,45
2016-07-08T04:19:05.041Z,45
2016-07-08T04:20:05.086Z,45
2016-07-08T04:21:05.023Z,50
2016-07-08T04:22:05.071Z,50
2016-07-08T04:23:05.065Z,50
2016-07-08T04:24:05.039Z,50
2016-07-08T04:25:05.076Z,50
2016-07-08T04:26:05.124Z,55
2016-07-08T04:27:05.080Z,60
2016-07-08T04:28:05.063Z,70
2016-07-08T04:29:05.048Z,75
2016-07-08T04:30:05.066Z,90
2016-07-08T04:31:05.042Z,95
2016-07-08T04:32:05.056Z,110
2016-07-08T04:33:05.041Z,115
2016-07-08T04:34:05.057Z,120
2016-07-08T04:35:05.027Z,160
2016-07-08T04:36:05.043Z,200
2016-07-08T04:37:05.078Z,205
2016-07-08T04:38:05.057Z,200
2016-07-08T04:39:05.051Z,155
2016-07-08T04:40:05.051Z,160
2016-07-08T04:41:05.052Z,165
2016-07-08T04:42:05.093Z,170
2016-07-08T04:43:05.071Z,175
2016-07-08T04:44:05.048Z,180
2016-07-08T04:45:05.089Z,215
2016-07-08T04:46:05.116Z,295
2016-07-08T04:47:05.061Z,295
2016-07-08T04:48:05.156Z,290
2016-07-08T04:49:05.115Z,270
2016-07-08T04:50:05.053Z,255
2016-07-08T04:51:05.075Z,270
2016-07-08T05:04:05.409Z,190
2016-07-08T05:04:22.029Z,195
2016-07-08T05:05:21.849Z,220
2016-07-08T05:06:21.926Z,260
2016-07-08T05:07:21.869Z,235
2016-07-08T05:08:21.828Z,180
2016-07-08T05:09:21.919Z,180
2016-07-08T05:10:21.875Z,285
2016-07-08T05:11:21.821Z,260
2016-07-08T05:12:21.858Z,195
2016-07-08T05:13:21.876Z,245
2016-07-08T05:14:21.839Z,170
2016-07-08T05:15:21.849Z,120
2016-07-08T05:16:21.867Z,120
2016-07-08T05:17:21.845Z,115
2016-07-08T05:18:21.976Z,115
2016-07-08T05:19:21.891Z,110
2016-07-08T05:20:21.880Z,110
2016-07-08T05:21:21.858Z,105
2016-07-08T05:22:21.867Z,105
2016-07-08T05:23:21.853Z,105
2016-07-08T05:24:21.904Z,105
2016-07-08T05:25:21.873Z,110
2016-07-08T05:26:21.873Z,120
2016-07-08T05:27:21.853Z,135
2016-07-08T05:28:21.925Z,150
2016-07-08T05:29:21.881Z,235
2016-07-08T05:30:21.939Z,170
2016-07-08T05:31:21.880Z,195
2016-07-08T05:32:21.867Z,180
2016-07-08T05:33:21.963Z,125
2016-07-08T05:34:21.911Z,120
2016-07-08T05:35:21.881Z,120
2016-07-08T05:36:21.884Z,135
2016-07-08T05:37:21.952Z,120
2016-07-08T05:38:21.926Z,115
2016-07-08T05:39:21.875Z,120
2016-07-08T05:40:21.932Z,130
2016-07-08T05:41:21.883Z,140
2016-07-08T05:42:21.853Z,150
2016-07-08T05:43:21.907Z,160
2016-07-08T05:44:21.924Z,165
2016-07-08T05:45:21.875Z,175
2016-07-08T05:46:21.845Z,180
2016-07-08T05:47:21.887Z,190
2016-07-08T05:48:21.914Z,200
2016-07-08T05:49:21.909Z,190
2016-07-08T05:50:21.855Z,165
2016-07-08T05:51:21.829Z,155
2016-07-08T05:52:21.908Z,150
2016-07-08T05:53:21.839Z,145
2016-07-08T05:54:21.863Z,130
2016-07-08T05:55:21.902Z,120
2016-07-08T05:56:21.982Z,110
2016-07-08T05:57:21.863Z,105
2016-07-08T05:58:23.374Z,100
2016-07-08T05:59:22.238Z,100
2016-07-08T06:00:21.915Z,105
2016-07-08T06:01:21.929Z,105
2016-07-08T06:02:21.903Z,110
2016-07-08T06:03:21.976Z,115
2016-07-08T06:04:22.106Z,120
2016-07-08T06:05:21.916Z,125
2016-07-08T06:06:21.904Z,135
2016-07-08T06:07:21.964Z,145
2016-07-08T06:08:21.926Z,155
2016-07-08T06:09:21.883Z,165
2016-07-08T06:10:21.972Z,175
2016-07-08T06:11:21.946Z,175
2016-07-08T06:12:21.916Z,175
2016-07-08T06:13:21.879Z,170
2016-07-08T06:14:21.830Z,170
2016-07-08T06:15:21.876Z,170
2016-07-08T06:16:21.939Z,170
2016-07-08T06:17:21.899Z,170
2016-07-08T06:18:22.016Z,170
2016-07-08T06:19:21.905Z,175
2016-07-08T06:20:22.077Z,190
2016-07-08T06:21:21.860Z,215
2016-07-08T06:22:21.920Z,240
2016-07-08T06:23:21.911Z,265
2016-07-08T06:24:21.954Z,285
2016-07-08T06:25:21.953Z,265
2016-07-08T06:26:21.927Z,240
2016-07-08T06:27:21.944Z,230
2016-07-08T06:28:21.954Z,225
2016-07-08T06:29:21.962Z,230
2016-07-08T06:30:21.920Z,250
2016-07-08T06:31:21.950Z,280
2016-07-08T06:32:22.154Z,320
2016-07-08T06:33:22.582Z,340
2016-07-08T06:34:21.973Z,365
2016-07-08T06:35:21.922Z,400
2016-07-08T06:36:21.982Z,410
2016-07-08T06:37:21.909Z,440
2016-07-08T06:38:22.009Z,430
2016-07-08T06:39:21.917Z,400
2016-07-08T06:40:21.945Z,375
2016-07-08T06:41:22.020Z,330
2016-07-08T06:42:22.275Z,300
2016-07-08T06:43:21.960Z,275
2016-07-08T06:44:22.065Z,260
2016-07-08T06:45:22.134Z,250
2016-07-08T06:46:21.981Z,240
2016-07-08T06:47:22.071Z,225
2016-07-08T06:48:21.950Z,225
2016-07-08T06:49:21.955Z,230
2016-07-08T06:50:21.943Z,235
2016-07-08T06:51:22.367Z,245
2016-07-08T06:52:21.945Z,255
2016-07-08T06:53:21.959Z,255
2016-07-08T06:54:22.583Z,245
2016-07-08T06:55:22.012Z,230
2016-07-08T06:56:22.726Z,225
2016-07-08T06:57:21.950Z,230
2016-07-08T06:58:22.016Z,240
2016-07-08T06:59:21.968Z,260
2016-07-08T07:00:22.044Z,285
2016-07-08T07:01:23.084Z,305
2016-07-08T07:02:22.066Z,325
2016-07-08T07:03:21.956Z,345
2016-07-08T07:04:22.670Z,345
2016-07-08T07:05:23.530Z,335
2016-07-08T07:06:22.561Z,310
2016-07-08T07:07:21.968Z,285
2016-07-08T07:08:22.195Z,275
2016-07-08T07:09:21.992Z,270
2016-07-08T07:10:21.969Z,255
2016-07-08T07:11:22.095Z,240
2016-07-08T07:12:22.003Z,240
2016-07-08T07:13:21.973Z,245
2016-07-08T07:14:21.962Z,245
2016-07-08T07:15:21.993Z,250
2016-07-08T07:16:22.113Z,245
2016-07-08T07:17:22.171Z,230
2016-07-08T07:18:21.978Z,220
2016-07-08T07:19:21.953Z,215
2016-07-08T07:20:22.041Z,210
2016-07-08T07:21:25.448Z,205
2016-07-08T07:22:22.226Z,200
2016-07-08T07:23:22.111Z,205
2016-07-08T07:24:22.558Z,210
2016-07-08T07:25:22.205Z,215
2016-07-08T07:26:22.986Z,220
2016-07-08T07:27:22.499Z,225
2016-07-08T07:28:21.971Z,235
2016-07-08T07:29:22.055Z,230
2016-07-08T07:30:22.744Z,230
2016-07-08T07:31:23.469Z,220
2016-07-08T07:32:25.068Z,205
2016-07-08T07:33:22.451Z,190
2016-07-08T07:34:27.031Z,180
2016-07-08T07:35:24.019Z,175
2016-07-08T07:36:29.849Z,170
2016-07-08T07:37:22.309Z,165
2016-07-08T07:38:22.212Z,165
2016-07-08T07:39:22.880Z,165
2016-07-08T07:40:24.550Z,165
2016-07-08T07:41:21.997Z,170
2016-07-08T07:42:22.310Z,170
2016-07-08T07:43:22.176Z,175
2016-07-08T07:44:23.395Z,185
2016-07-08T07:45:22.087Z,190
2016-07-08T07:46:22.918Z,200
2016-07-08T07:47:23.330Z,205
2016-07-08T07:48:22.133Z,205
2016-07-08T07:49:22.012Z,205
2016-07-08T07:50:22.077Z,205
2016-07-08T07:51:22.369Z,205
2016-07-08T07:52:22.347Z,210
2016-07-08T07:53:22.083Z,215
2016-07-08T07:54:22.007Z,220
2016-07-08T07:55:22.240Z,230
2016-07-08T07:56:22.043Z,235
2016-07-08T07:57:22.111Z,245
2016-07-08T07:58:22.036Z,250
2016-07-08T07:59:21.964Z,255
2016-07-08T08:00:23.592Z,260
2016-07-08T08:01:22.045Z,260
2016-07-08T08:02:22.151Z,265
2016-07-08T08:03:22.186Z,275
2016-07-08T08:04:22.029Z,285
2016-07-08T08:05:22.007Z,290
2016-07-08T08:06:23.265Z,310
2016-07-08T08:07:22.011Z,330
2016-07-08T08:08:22.003Z,350
2016-07-08T08:09:22.032Z,400
2016-07-08T08:10:22.003Z,510
2016-07-08T08:11:22.011Z,440
2016-07-08T08:12:21.999Z,390
2016-07-08T08:13:22.022Z,355
2016-07-08T08:14:21.969Z,350
2016-07-08T08:15:22.015Z,340
2016-07-08T08:16:22.146Z,330
2016-07-08T08:17:22.156Z,330
2016-07-08T08:18:21.989Z,335
2016-07-08T08:19:22.154Z,355
2016-07-08T08:20:22.167Z,415
2016-07-08T08:21:22.081Z,465
2016-07-08T08:22:22.169Z,455
2016-07-08T08:23:22.192Z,595
2016-07-08T08:24:22.059Z,610
2016-07-08T08:25:22.023Z,650
2016-07-08T08:26:22.023Z,650
2016-07-08T08:27:23.017Z,575
2016-07-08T08:37:22.842Z,320
2016-07-08T08:37:39.407Z,320
2016-07-08T08:38:39.360Z,320
2016-07-08T08:39:39.356Z,325
2016-07-08T08:40:39.601Z,340
2016-07-08T08:41:39.337Z,330
2016-07-08T08:42:39.821Z,325
2016-07-08T08:43:39.527Z,300
2016-07-08T08:44:39.552Z,300
2016-07-08T08:45:39.332Z,305
2016-07-08T08:46:49.831Z,285
2016-07-08T08:47:39.420Z,280
2016-07-08T08:48:39.319Z,285
2016-07-08T08:49:39.382Z,315
2016-07-08T08:50:39.449Z,360
2016-07-08T08:51:39.363Z,405
2016-07-08T08:52:39.417Z,415
2016-07-08T08:53:39.338Z,365
2016-07-08T08:54:39.325Z,325
2016-07-08T08:55:39.439Z,290
2016-07-08T08:56:39.318Z,255
2016-07-08T08:57:39.314Z,220
2016-07-08T08:58:44.671Z,185
2016-07-08T08:59:47.503Z,165
2016-07-08T09:00:39.696Z,145
2016-07-08T09:01:39.288Z,125
2016-07-08T09:02:39.445Z,115
2016-07-08T09:03:39.379Z,105
2016-07-08T09:04:39.938Z,100
2016-07-08T09:05:39.399Z,100
2016-07-08T09:06:39.388Z,100
2016-07-08T09:07:39.958Z,100
2016-07-08T09:08:39.453Z,110
2016-07-08T09:09:39.701Z,130
2016-07-08T09:10:39.513Z,165
2016-07-08T09:11:39.365Z,185
2016-07-08T09:12:39.413Z,210
2016-07-08T09:13:39.370Z,230
2016-07-08T09:14:40.218Z,245
2016-07-08T09:15:39.537Z,265
2016-07-08T09:16:39.428Z,295
2016-07-08T09:17:39.375Z,310
2016-07-08T09:18:39.447Z,315
2016-07-08T09:19:39.340Z,310
2016-07-08T09:20:39.431Z,300
2016-07-08T09:21:39.474Z,280
2016-07-08T09:22:39.315Z,265
2016-07-08T09:23:39.418Z,255
2016-07-08T09:24:39.446Z,245
2016-07-08T09:25:41.833Z,230
2016-07-08T09:26:39.550Z,230
2016-07-08T09:27:39.943Z,235
2016-07-08T09:28:39.467Z,245
2016-07-08T09:29:39.464Z,255
2016-07-08T09:30:39.423Z,255
2016-07-08T09:31:39.387Z,255
2016-07-08T09:32:39.604Z,255
2016-07-08T09:33:39.360Z,255
2016-07-08T09:34:39.329Z,260
2016-07-08T09:35:39.422Z,265
2016-07-08T09:36:39.354Z,270
2016-07-08T09:37:41.020Z,280
2016-07-08T09:38:39.521Z,285
2016-07-08T09:39:39.418Z,310
2016-07-08T09:40:39.590Z,340
2016-07-08T09:41:39.432Z,360
2016-07-08T09:42:39.465Z,390
2016-07-08T09:43:39.596Z,415
2016-07-08T09:44:40.428Z,435
2016-07-08T09:45:39.824Z,420
2016-07-08T09:46:39.954Z,415
2016-07-08T09:47:39.736Z,390
2016-07-08T09:48:39.601Z,370
2016-07-08T09:49:39.425Z,350
2016-07-08T09:50:39.367Z,345
2016-07-08T09:51:39.533Z,345
2016-07-08T09:52:39.526Z,345
2016-07-08T09:53:39.741Z,350
2016-07-08T09:54:39.380Z,345
2016-07-08T09:55:41.064Z,350
2016-07-08T09:56:39.414Z,350
2016-07-08T09:57:39.989Z,330
2016-07-08T09:58:39.934Z,315
2016-07-08T09:59:39.422Z,320
2016-07-08T10:00:40.837Z,330
2016-07-08T10:01:39.765Z,320
2016-07-08T10:02:40.021Z,315
2016-07-08T10:03:40.585Z,315
2016-07-08T10:04:39.658Z,310
2016-07-08T10:05:39.383Z,295
2016-07-08T10:06:39.401Z,275
2016-07-08T10:07:40.494Z,270
2016-07-08T10:08:42.722Z,270
2016-07-08T10:09:44.870Z,270
2016-07-08T10:10:39.824Z,275
2016-07-08T10:11:39.574Z,270
2016-07-08T10:12:39.385Z,270
2016-07-08T10:13:39.595Z,275
2016-07-08T10:14:41.443Z,280
2016-07-08T10:15:39.392Z,280
2016-07-08T10:16:39.693Z,285
2016-07-08T10:17:41.464Z,280
2016-07-08T10:18:40.689Z,280
2016-07-08T10:19:45.540Z,280
2016-07-08T10:20:39.460Z,265
2016-07-08T10:21:45.724Z,260
2016-07-08T10:22:39.574Z,255
2016-07-08T10:23:39.866Z,255
2016-07-08T10:24:47.789Z,255
2016-07-08T10:25:39.487Z,255
2016-07-08T10:26:53.003Z,260
2016-07-08T10:27:40.021Z,275
2016-07-08T10:28:39.828Z,280
2016-07-08T10:29:39.582Z,290
2016-07-08T10:30:41.230Z,300
2016-07-08T10:31:39.533Z,305
2016-07-08T10:32:39.473Z,315
2016-07-08T10:33:43.180Z,330
2016-07-08T10:34:40.943Z,355
2016-07-08T10:35:40.139Z,385
2016-07-08T10:36:39.816Z,405
2016-07-08T10:37:40.398Z,445
2016-07-08T10:38:40.814Z,425
2016-07-08T10:39:39.849Z,420
2016-07-08T10:40:39.827Z,395
2016-07-08T10:41:40.270Z,370
2016-07-08T10:42:40.213Z,320
2016-07-08T10:43:50.539Z,285
2016-07-08T10:44:40.407Z,270
2016-07-08T10:45:39.931Z,260
2016-07-08T10:46:39.895Z,265
2016-07-08T10:47:39.747Z,270
2016-07-08T10:48:41.392Z,270
2016-07-08T10:49:39.769Z,275
2016-07-08T10:50:41.930Z,295
2016-07-08T10:51:39.578Z,320
2016-07-08T10:52:39.534Z,335
2016-07-08T10:53:39.493Z,335
2016-07-08T10:54:39.447Z,355
2016-07-08T10:55:39.418Z,350
2016-07-08T10:56:39.674Z,305
2016-07-08T10:57:39.696Z,275
2016-07-08T10:58:40.496Z,270
2016-07-08T10:59:39.437Z,290
2016-07-08T11:00:43.561Z,290
2016-07-08T11:01:42.640Z,275
2016-07-08T11:02:47.793Z,365
2016-07-08T11:03:39.535Z,435
2016-07-08T11:04:39.485Z,445
2016-07-08T11:05:39.461Z,445
2016-07-08T11:06:44.485Z,385
2016-07-08T11:08:04.374Z,345
2016-07-08T11:08:39.964Z,270
2016-07-08T11:09:42.879Z,255
2016-07-08T11:10:51.344Z,220
2016-07-08T11:11:39.557Z,210
2016-07-08T11:12:39.757Z,215
2016-07-08T11:13:41.509Z,210
2016-07-08T11:14:44.941Z,235
2016-07-08T11:15:40.665Z,270
2016-07-08T11:16:39.923Z,280
2016-07-08T11:17:39.723Z,270
2016-07-08T11:20:32.759Z,255
2016-07-08T11:20:57.870Z,265
2016-07-08T11:34:49.881Z,305
2016-07-08T11:35:06.561Z,300
2016-07-08T11:36:06.550Z,300
2016-07-08T11:37:06.514Z,295
2016-07-08T11:38:06.743Z,290
2016-07-08T11:39:06.593Z,300
2016-07-08T11:40:09.844Z,295
2016-07-08T11:41:06.416Z,285
2016-07-08T11:42:26.695Z,295
2016-07-08T11:43:14.025Z,300
2016-07-08T11:44:06.602Z,305
2016-07-08T11:45:18.016Z,310
2016-07-08T11:46:07.041Z,310
2016-07-08T11:47:19.294Z,315
2016-07-08T11:48:07.585Z,330
2016-07-08T11:49:06.518Z,330
2016-07-08T11:50:12.741Z,345
2016-07-08T11:51:06.835Z,370
2016-07-08T11:52:22.883Z,375
2016-07-08T11:53:17.699Z,380
2016-07-08T11:54:06.705Z,370
2016-07-08T11:55:06.507Z,365
2016-07-08T11:56:08.226Z,380
2016-07-08T11:57:10.489Z,360
2016-07-08T11:58:06.455Z,395
2016-07-08T11:59:06.575Z,420
2016-07-08T12:00:06.511Z,455
2016-07-08T12:01:11.481Z,440
2016-07-08T12:02:06.553Z,450
2016-07-08T12:03:06.786Z,450
2016-07-08T12:04:06.485Z,495
2016-07-08T12:05:06.870Z,460
2016-07-08T12:06:18.986Z,420
2016-07-08T12:07:14.470Z,425
2016-07-08T12:08:17.400Z,435
2016-07-08T12:09:06.563Z,445
2016-07-08T12:10:06.510Z,470
2016-07-08T12:11:08.084Z,470
2016-07-08T12:12:06.852Z,455
2016-07-08T12:13:09.721Z,475
2016-07-08T12:14:09.873Z,485
2016-07-08T12:15:06.567Z,600
2016-07-08T12:16:07.444Z,665
2016-07-08T12:17:06.775Z,625
2016-07-08T12:18:06.498Z,630
2016-07-08T12:19:06.510Z,835
2016-07-08T12:20:06.520Z,835
2016-07-08T12:21:06.854Z,750
2016-07-08T12:22:06.505Z,870
2016-07-08T12:23:06.463Z,1295
2016-07-08T12:24:55.273Z,1400
2016-07-08T12:25:11.834Z,960
2016-07-08T12:26:39.159Z,1835
2016-07-08T12:27:48.233Z,2050
2016-07-08T12:28:25.030Z,2085
2016-07-08T12:29:14.946Z,1515
2016-07-08T12:30:29.158Z,820
2016-07-08T12:31:11.891Z,1075
2016-07-08T12:32:17.423Z,955
2016-07-08T12:33:43.190Z,900
2016-07-08T12:35:11.287Z,580
2016-07-08T12:35:27.964Z,825
2016-07-08T12:36:32.976Z,950
2016-07-08T12:37:27.851Z,500
2016-07-08T12:38:53.776Z,480
2016-07-08T12:39:43.319Z,510
2016-07-08T12:40:28.783Z,665
2016-07-08T12:41:32.488Z,770
2016-07-08T12:42:28.059Z,775
2016-07-08T12:43:44.075Z,425
2016-07-08T12:44:28.326Z,355
2016-07-08T12:45:31.214Z,310
2016-07-08T12:46:29.033Z,260
2016-07-08T12:47:28.828Z,245
2016-07-08T12:48:28.109Z,285
2016-07-08T12:49:44.627Z,335
2016-07-08T12:50:27.846Z,355
2016-07-08T12:51:28.713Z,355
2016-07-08T12:52:28.472Z,350
2016-07-08T12:53:48.996Z,365
2016-07-08T12:54:39.336Z,410
2016-07-08T12:55:44.159Z,380
2016-07-08T12:56:27.901Z,415
2016-07-08T12:57:28.361Z,405
2016-07-08T12:58:31.202Z,400
2016-07-08T13:00:28.199Z,415
2016-07-08T13:00:56.581Z,400
2016-07-08T13:02:09.550Z,435
2016-07-08T13:03:02.937Z,445
2016-07-08T13:03:47.013Z,415
2016-07-08T13:04:57.327Z,390
2016-07-08T13:05:53.457Z,420
2016-07-08T13:07:05.069Z,405
2016-07-08T13:07:46.217Z,390
2016-07-08T13:08:45.396Z,410
2016-07-08T13:09:45.673Z,500
2016-07-08T13:10:47.609Z,435
2016-07-08T13:11:45.320Z,345
2016-07-08T13:13:21.560Z,345
2016-07-08T13:13:45.586Z,330
2016-07-08T13:14:45.694Z,340
2016-07-08T13:16:18.403Z,365
2016-07-08T13:16:46.675Z,355
2016-07-08T13:17:54.541Z,305
2016-07-08T13:18:45.375Z,270
2016-07-08T13:20:49.363Z,225
2016-07-08T13:21:09.704Z,225
2016-07-08T13:26:30.676Z,210
2016-07-08T13:26:48.488Z,200
2016-07-08T13:28:30.695Z,175
2016-07-08T13:29:14.469Z,185
2016-07-08T13:31:02.454Z,195
2016-07-08T13:31:20.757Z,190
2016-07-08T13:32:40.434Z,215
2016-07-08T13:33:44.312Z,245
2016-07-08T13:34:22.036Z,265
2016-07-08T13:35:19.276Z,275
2016-07-08T13:36:24.182Z,295
2016-07-08T13:38:01.137Z,330
2016-07-08T13:38:22.794Z,325
2016-07-08T13:39:26.501Z,325
2016-07-08T13:40:37.486Z,335
2016-07-08T13:42:02.394Z,320
2016-07-08T13:42:35.119Z,305
2016-07-08T13:43:22.793Z,290
2016-07-08T13:44:22.493Z,270
2016-07-08T13:45:24.006Z,265
2016-07-08T13:46:24.697Z,275
2016-07-08T13:47:22.210Z,280
2016-07-08T13:48:22.610Z,285
2016-07-08T13:49:37.907Z,250
2016-07-08T13:50:27.993Z,245
2016-07-08T13:51:22.077Z,260
2016-07-08T13:52:23.012Z,275
2016-07-08T13:53:22.932Z,290
2016-07-08T13:54:22.407Z,290
2016-07-08T13:55:22.890Z,290
2016-07-08T13:56:22.690Z,275
2016-07-08T13:57:22.079Z,255
2016-07-08T13:58:22.148Z,240
2016-07-08T13:59:22.077Z,240
2016-07-08T14:00:22.292Z,235
2016-07-08T14:01:22.402Z,240
2016-07-08T14:02:22.083Z,240
2016-07-08T14:03:26.920Z,235
2016-07-08T14:04:23.730Z,220
2016-07-08T14:05:23.369Z,230
2016-07-08T14:06:22.619Z,240
2016-07-08T14:07:22.184Z,235
2016-07-08T14:08:22.510Z,230
2016-07-08T14:09:22.813Z,260
2016-07-08T14:10:22.085Z,290
2016-07-08T14:11:28.764Z,345
2016-07-08T14:12:22.300Z,390
2016-07-08T14:14:22.169Z,480
2016-07-08T14:15:22.284Z,440
2016-07-08T14:16:26.791Z,400
2016-07-08T14:17:22.873Z,385
2016-07-08T14:18:26.869Z,355
2016-07-08T14:19:23.245Z,305
2016-07-08T14:20:24.137Z,275
2016-07-08T14:21:24.712Z,300
2016-07-08T14:22:22.158Z,350
2016-07-08T14:23:32.271Z,375
2016-07-08T14:24:24.328Z,370
2016-07-08T14:25:38.274Z,360
2016-07-08T14:26:22.194Z,335
2016-07-08T14:27:25.595Z,330
2016-07-08T14:28:27.330Z,305
2016-07-08T14:29:26.669Z,320
2016-07-08T14:30:22.374Z,300
2016-07-08T14:32:22.264Z,260
2016-07-08T14:33:26.091Z,250
2016-07-08T14:34:26.561Z,225
2016-07-08T14:36:03.989Z,275
2016-07-08T14:36:26.010Z,295
2016-07-08T14:37:41.719Z,305
2016-07-08T14:38:22.604Z,310
2016-07-08T14:39:22.219Z,315
2016-07-08T14:40:22.287Z,315
2016-07-08T14:41:25.723Z,315
2016-07-08T14:42:22.637Z,345